sensor_id;sensor_type;location;lat;lon;timestamp;P1;durP1;ratioP1;P2;durP2;ratioP2
7501;SDS011;3792;47.740;7.606;2023-02-25T00:00:21;15.27;;;9.67;;
7501;SDS011;3792;47.740;7.606;2023-02-25T00:02:49;17.50;;;9.93;;
7501;SDS011;3792;47.740;7.606;2023-02-25T00:05:17;16.40;;;9.87;;
7501;SDS011;3792;47.740;7.606;2023-02-25T00:07:44;12.27;;;8.33;;
7501;SDS011;3792;47.740;7.606;2023-02-25T00:10:12;13.53;;;9.67;;
7501;SDS011;3792;47.740;7.606;2023-02-25T00:12:40;15.67;;;9.63;;
7501;SDS011;3792;47.740;7.606;2023-02-25T00:15:08;15.10;;;8.70;;
7501;SDS011;3792;47.740;7.606;2023-02-25T00:17:37;15.53;;;9.33;;
7501;SDS011;3792;47.740;7.606;2023-02-25T00:20:05;18.50;;;9.43;;
7501;SDS011;3792;47.740;7.606;2023-02-25T00:22:37;16.10;;;10.90;;
7501;SDS011;3792;47.740;7.606;2023-02-25T00:25:04;17.13;;;9.93;;
7501;SDS011;3792;47.740;7.606;2023-02-25T00:27:34;18.90;;;11.10;;
7501;SDS011;3792;47.740;7.606;2023-02-25T00:30:02;15.37;;;10.13;;
7501;SDS011;3792;47.740;7.606;2023-02-25T00:32:29;14.37;;;9.03;;
7501;SDS011;3792;47.740;7.606;2023-02-25T00:34:57;15.07;;;9.37;;
7501;SDS011;3792;47.740;7.606;2023-02-25T00:37:24;15.03;;;9.10;;
7501;SDS011;3792;47.740;7.606;2023-02-25T00:39:51;14.20;;;9.20;;
7501;SDS011;3792;47.740;7.606;2023-02-25T00:42:18;17.20;;;8.97;;
7501;SDS011;3792;47.740;7.606;2023-02-25T00:44:47;15.40;;;9.13;;
7501;SDS011;3792;47.740;7.606;2023-02-25T00:47:16;16.97;;;9.80;;
7501;SDS011;3792;47.740;7.606;2023-02-25T00:49:44;13.50;;;8.80;;
7501;SDS011;3792;47.740;7.606;2023-02-25T00:52:12;15.87;;;8.90;;
7501;SDS011;3792;47.740;7.606;2023-02-25T00:54:39;15.30;;;9.00;;
7501;SDS011;3792;47.740;7.606;2023-02-25T00:57:07;15.30;;;8.67;;
7501;SDS011;3792;47.740;7.606;2023-02-25T00:59:34;22.03;;;11.33;;
7501;SDS011;3792;47.740;7.606;2023-02-25T01:02:02;17.87;;;10.37;;
7501;SDS011;3792;47.740;7.606;2023-02-25T01:04:30;14.33;;;8.57;;
7501;SDS011;3792;47.740;7.606;2023-02-25T01:06:57;14.73;;;8.83;;
7501;SDS011;3792;47.740;7.606;2023-02-25T01:09:24;16.27;;;9.07;;
7501;SDS011;3792;47.740;7.606;2023-02-25T01:11:51;16.20;;;8.90;;
7501;SDS011;3792;47.740;7.606;2023-02-25T01:14:19;14.73;;;8.93;;
7501;SDS011;3792;47.740;7.606;2023-02-25T01:16:48;13.00;;;8.70;;
7501;SDS011;3792;47.740;7.606;2023-02-25T01:19:18;15.30;;;9.10;;
7501;SDS011;3792;47.740;7.606;2023-02-25T01:21:47;14.50;;;8.97;;
7501;SDS011;3792;47.740;7.606;2023-02-25T01:24:16;16.77;;;9.93;;
7501;SDS011;3792;47.740;7.606;2023-02-25T01:26:45;13.33;;;8.80;;
7501;SDS011;3792;47.740;7.606;2023-02-25T01:29:13;15.70;;;9.60;;
7501;SDS011;3792;47.740;7.606;2023-02-25T01:31:41;16.03;;;9.60;;
7501;SDS011;3792;47.740;7.606;2023-02-25T01:34:09;15.03;;;9.23;;
7501;SDS011;3792;47.740;7.606;2023-02-25T01:36:40;15.17;;;9.40;;
7501;SDS011;3792;47.740;7.606;2023-02-25T01:39:08;15.43;;;9.50;;
7501;SDS011;3792;47.740;7.606;2023-02-25T01:41:36;15.60;;;9.13;;
7501;SDS011;3792;47.740;7.606;2023-02-25T01:44:05;15.80;;;9.47;;
7501;SDS011;3792;47.740;7.606;2023-02-25T01:46:34;17.83;;;9.57;;
7501;SDS011;3792;47.740;7.606;2023-02-25T01:49:01;14.47;;;9.07;;
7501;SDS011;3792;47.740;7.606;2023-02-25T01:51:30;15.73;;;10.30;;
7501;SDS011;3792;47.740;7.606;2023-02-25T01:53:59;16.33;;;9.80;;
7501;SDS011;3792;47.740;7.606;2023-02-25T01:56:30;14.77;;;9.17;;
7501;SDS011;3792;47.740;7.606;2023-02-25T01:58:58;16.93;;;10.30;;
7501;SDS011;3792;47.740;7.606;2023-02-25T02:01:26;16.87;;;10.30;;
7501;SDS011;3792;47.740;7.606;2023-02-25T02:03:57;17.87;;;10.07;;
7501;SDS011;3792;47.740;7.606;2023-02-25T02:06:30;18.27;;;10.13;;
7501;SDS011;3792;47.740;7.606;2023-02-25T02:09:02;14.10;;;9.30;;
7501;SDS011;3792;47.740;7.606;2023-02-25T02:11:32;16.83;;;10.53;;
7501;SDS011;3792;47.740;7.606;2023-02-25T02:14:00;16.40;;;10.50;;
7501;SDS011;3792;47.740;7.606;2023-02-25T02:16:42;15.30;;;9.67;;
7501;SDS011;3792;47.740;7.606;2023-02-25T02:19:27;15.63;;;9.10;;
7501;SDS011;3792;47.740;7.606;2023-02-25T02:22:05;14.57;;;8.80;;
7501;SDS011;3792;47.740;7.606;2023-02-25T02:28:05;16.03;;;9.53;;
7501;SDS011;3792;47.740;7.606;2023-02-25T02:31:09;16.13;;;9.90;;
7501;SDS011;3792;47.740;7.606;2023-02-25T02:33:57;14.40;;;9.27;;
7501;SDS011;3792;47.740;7.606;2023-02-25T02:36:37;13.23;;;9.13;;
7501;SDS011;3792;47.740;7.606;2023-02-25T02:39:15;15.67;;;9.30;;
7501;SDS011;3792;47.740;7.606;2023-02-25T02:41:53;15.03;;;10.23;;
7501;SDS011;3792;47.740;7.606;2023-02-25T02:44:28;13.13;;;9.07;;
7501;SDS011;3792;47.740;7.606;2023-02-25T02:47:01;13.83;;;9.30;;
7501;SDS011;3792;47.740;7.606;2023-02-25T02:49:33;14.30;;;9.33;;
7501;SDS011;3792;47.740;7.606;2023-02-25T02:52:05;12.87;;;9.33;;
7501;SDS011;3792;47.740;7.606;2023-02-25T02:54:39;14.97;;;9.43;;
7501;SDS011;3792;47.740;7.606;2023-02-25T02:57:09;13.87;;;9.77;;
7501;SDS011;3792;47.740;7.606;2023-02-25T02:59:41;18.10;;;11.17;;
7501;SDS011;3792;47.740;7.606;2023-02-25T03:02:15;14.13;;;9.47;;
7501;SDS011;3792;47.740;7.606;2023-02-25T03:04:44;13.47;;;9.30;;
7501;SDS011;3792;47.740;7.606;2023-02-25T03:07:15;15.80;;;9.77;;
7501;SDS011;3792;47.740;7.606;2023-02-25T03:09:44;14.00;;;9.60;;
7501;SDS011;3792;47.740;7.606;2023-02-25T03:12:15;15.00;;;10.70;;
7501;SDS011;3792;47.740;7.606;2023-02-25T03:14:42;26.83;;;11.37;;
7501;SDS011;3792;47.740;7.606;2023-02-25T03:17:10;17.73;;;9.97;;
7501;SDS011;3792;47.740;7.606;2023-02-25T03:19:43;14.10;;;9.20;;
7501;SDS011;3792;47.740;7.606;2023-02-25T03:22:15;15.20;;;9.33;;
7501;SDS011;3792;47.740;7.606;2023-02-25T03:24:47;14.27;;;8.43;;
7501;SDS011;3792;47.740;7.606;2023-02-25T03:27:23;13.40;;;8.13;;
7501;SDS011;3792;47.740;7.606;2023-02-25T03:29:53;12.57;;;7.83;;
7501;SDS011;3792;47.740;7.606;2023-02-25T03:32:25;11.17;;;7.80;;
7501;SDS011;3792;47.740;7.606;2023-02-25T03:34:56;13.43;;;7.83;;
7501;SDS011;3792;47.740;7.606;2023-02-25T03:37:28;11.93;;;7.13;;
7501;SDS011;3792;47.740;7.606;2023-02-25T03:40:00;10.73;;;6.87;;
7501;SDS011;3792;47.740;7.606;2023-02-25T03:42:34;12.50;;;7.13;;
7501;SDS011;3792;47.740;7.606;2023-02-25T03:45:04;9.70;;;6.77;;
7501;SDS011;3792;47.740;7.606;2023-02-25T03:47:34;8.77;;;6.23;;
7501;SDS011;3792;47.740;7.606;2023-02-25T03:50:05;9.60;;;6.07;;
7501;SDS011;3792;47.740;7.606;2023-02-25T03:52:35;11.57;;;6.40;;
7501;SDS011;3792;47.740;7.606;2023-02-25T03:55:05;10.83;;;6.20;;
7501;SDS011;3792;47.740;7.606;2023-02-25T03:57:35;9.13;;;5.90;;
7501;SDS011;3792;47.740;7.606;2023-02-25T04:00:05;15.70;;;6.70;;
7501;SDS011;3792;47.740;7.606;2023-02-25T04:02:40;10.20;;;6.17;;
7501;SDS011;3792;47.740;7.606;2023-02-25T04:05:09;8.00;;;5.60;;
7501;SDS011;3792;47.740;7.606;2023-02-25T04:07:36;8.97;;;5.97;;
7501;SDS011;3792;47.740;7.606;2023-02-25T04:10:04;9.57;;;6.73;;
7501;SDS011;3792;47.740;7.606;2023-02-25T04:12:32;9.20;;;6.23;;
7501;SDS011;3792;47.740;7.606;2023-02-25T04:14:59;10.50;;;5.93;;
7501;SDS011;3792;47.740;7.606;2023-02-25T04:17:26;11.70;;;6.30;;
7501;SDS011;3792;47.740;7.606;2023-02-25T04:19:53;10.23;;;6.37;;
7501;SDS011;3792;47.740;7.606;2023-02-25T04:22:22;10.93;;;6.37;;
7501;SDS011;3792;47.740;7.606;2023-02-25T04:24:49;9.73;;;6.20;;
7501;SDS011;3792;47.740;7.606;2023-02-25T04:27:16;9.03;;;5.73;;
7501;SDS011;3792;47.740;7.606;2023-02-25T04:29:43;9.63;;;5.53;;
7501;SDS011;3792;47.740;7.606;2023-02-25T04:32:10;11.10;;;5.83;;
7501;SDS011;3792;47.740;7.606;2023-02-25T04:34:37;6.70;;;5.47;;
7501;SDS011;3792;47.740;7.606;2023-02-25T04:37:04;8.10;;;5.33;;
7501;SDS011;3792;47.740;7.606;2023-02-25T04:39:34;9.93;;;5.67;;
7501;SDS011;3792;47.740;7.606;2023-02-25T04:42:02;12.53;;;6.27;;
7501;SDS011;3792;47.740;7.606;2023-02-25T04:44:29;8.10;;;5.50;;
7501;SDS011;3792;47.740;7.606;2023-02-25T04:46:56;11.57;;;5.40;;
7501;SDS011;3792;47.740;7.606;2023-02-25T04:49:23;9.13;;;5.47;;
7501;SDS011;3792;47.740;7.606;2023-02-25T04:51:50;6.60;;;5.60;;
7501;SDS011;3792;47.740;7.606;2023-02-25T04:54:19;10.13;;;6.07;;
7501;SDS011;3792;47.740;7.606;2023-02-25T04:56:48;9.53;;;6.03;;
7501;SDS011;3792;47.740;7.606;2023-02-25T04:59:15;8.47;;;5.77;;
7501;SDS011;3792;47.740;7.606;2023-02-25T05:01:42;9.73;;;5.93;;
7501;SDS011;3792;47.740;7.606;2023-02-25T05:04:09;9.10;;;5.57;;
7501;SDS011;3792;47.740;7.606;2023-02-25T05:06:36;8.63;;;5.13;;
7501;SDS011;3792;47.740;7.606;2023-02-25T05:09:04;13.07;;;5.97;;
7501;SDS011;3792;47.740;7.606;2023-02-25T05:11:31;7.20;;;5.37;;
7501;SDS011;3792;47.740;7.606;2023-02-25T05:13:59;7.30;;;5.90;;
7501;SDS011;3792;47.740;7.606;2023-02-25T05:16:26;7.63;;;5.60;;
7501;SDS011;3792;47.740;7.606;2023-02-25T05:18:54;9.77;;;5.37;;
7501;SDS011;3792;47.740;7.606;2023-02-25T05:21:22;6.90;;;4.80;;
7501;SDS011;3792;47.740;7.606;2023-02-25T05:23:51;9.43;;;5.50;;
7501;SDS011;3792;47.740;7.606;2023-02-25T05:26:19;8.87;;;6.20;;
7501;SDS011;3792;47.740;7.606;2023-02-25T05:28:48;7.37;;;6.17;;
7501;SDS011;3792;47.740;7.606;2023-02-25T05:31:17;10.93;;;5.77;;
7501;SDS011;3792;47.740;7.606;2023-02-25T05:33:44;9.00;;;5.77;;
7501;SDS011;3792;47.740;7.606;2023-02-25T05:36:12;9.13;;;5.93;;
7501;SDS011;3792;47.740;7.606;2023-02-25T05:38:40;8.93;;;5.23;;
7501;SDS011;3792;47.740;7.606;2023-02-25T05:41:08;6.83;;;4.57;;
7501;SDS011;3792;47.740;7.606;2023-02-25T05:43:39;7.17;;;4.90;;
7501;SDS011;3792;47.740;7.606;2023-02-25T05:46:10;7.70;;;4.80;;
7501;SDS011;3792;47.740;7.606;2023-02-25T05:48:39;7.83;;;4.93;;
7501;SDS011;3792;47.740;7.606;2023-02-25T05:51:10;7.90;;;4.97;;
7501;SDS011;3792;47.740;7.606;2023-02-25T05:53:38;8.23;;;4.97;;
7501;SDS011;3792;47.740;7.606;2023-02-25T05:56:07;8.80;;;5.40;;
7501;SDS011;3792;47.740;7.606;2023-02-25T05:58:37;6.57;;;4.57;;
7501;SDS011;3792;47.740;7.606;2023-02-25T06:01:05;12.73;;;5.03;;
7501;SDS011;3792;47.740;7.606;2023-02-25T06:03:34;9.77;;;5.17;;
7501;SDS011;3792;47.740;7.606;2023-02-25T06:06:04;7.63;;;5.20;;
7501;SDS011;3792;47.740;7.606;2023-02-25T06:08:32;8.60;;;5.07;;
7501;SDS011;3792;47.740;7.606;2023-02-25T06:10:59;8.67;;;5.90;;
7501;SDS011;3792;47.740;7.606;2023-02-25T06:13:28;10.37;;;5.87;;
7501;SDS011;3792;47.740;7.606;2023-02-25T06:15:55;9.90;;;5.77;;
7501;SDS011;3792;47.740;7.606;2023-02-25T06:18:22;6.47;;;5.47;;
7501;SDS011;3792;47.740;7.606;2023-02-25T06:20:49;7.43;;;5.13;;
7501;SDS011;3792;47.740;7.606;2023-02-25T06:23:17;9.47;;;5.27;;
7501;SDS011;3792;47.740;7.606;2023-02-25T06:25:44;6.80;;;5.37;;
7501;SDS011;3792;47.740;7.606;2023-02-25T06:28:11;7.80;;;4.90;;
7501;SDS011;3792;47.740;7.606;2023-02-25T06:30:39;8.83;;;5.57;;
7501;SDS011;3792;47.740;7.606;2023-02-25T06:33:06;7.43;;;5.00;;
7501;SDS011;3792;47.740;7.606;2023-02-25T06:35:33;10.43;;;5.20;;
7501;SDS011;3792;47.740;7.606;2023-02-25T06:38:01;7.70;;;5.23;;
7501;SDS011;3792;47.740;7.606;2023-02-25T06:40:29;9.80;;;5.63;;
7501;SDS011;3792;47.740;7.606;2023-02-25T06:42:57;7.77;;;5.00;;
7501;SDS011;3792;47.740;7.606;2023-02-25T06:45:24;8.03;;;5.53;;
7501;SDS011;3792;47.740;7.606;2023-02-25T06:47:51;9.37;;;5.50;;
7501;SDS011;3792;47.740;7.606;2023-02-25T06:50:19;8.60;;;4.77;;
7501;SDS011;3792;47.740;7.606;2023-02-25T06:52:46;7.67;;;5.00;;
7501;SDS011;3792;47.740;7.606;2023-02-25T06:55:13;8.00;;;4.60;;
7501;SDS011;3792;47.740;7.606;2023-02-25T06:57:41;5.33;;;4.50;;
7501;SDS011;3792;47.740;7.606;2023-02-25T07:00:09;6.47;;;4.50;;
7501;SDS011;3792;47.740;7.606;2023-02-25T07:02:37;6.97;;;4.33;;
7501;SDS011;3792;47.740;7.606;2023-02-25T07:05:04;7.70;;;4.53;;
7501;SDS011;3792;47.740;7.606;2023-02-25T07:07:31;6.47;;;4.53;;
7501;SDS011;3792;47.740;7.606;2023-02-25T07:09:58;6.03;;;4.40;;
7501;SDS011;3792;47.740;7.606;2023-02-25T07:12:26;5.30;;;4.17;;
7501;SDS011;3792;47.740;7.606;2023-02-25T07:14:54;6.77;;;4.67;;
7501;SDS011;3792;47.740;7.606;2023-02-25T07:17:21;10.10;;;5.47;;
7501;SDS011;3792;47.740;7.606;2023-02-25T07:19:49;7.63;;;5.47;;
7501;SDS011;3792;47.740;7.606;2023-02-25T07:22:16;10.43;;;6.63;;
7501;SDS011;3792;47.740;7.606;2023-02-25T07:24:44;7.50;;;5.63;;
7501;SDS011;3792;47.740;7.606;2023-02-25T07:27:11;8.60;;;5.93;;
7501;SDS011;3792;47.740;7.606;2023-02-25T07:29:39;10.20;;;6.70;;
7501;SDS011;3792;47.740;7.606;2023-02-25T07:32:08;8.77;;;6.50;;
7501;SDS011;3792;47.740;7.606;2023-02-25T07:34:35;10.20;;;6.37;;
7501;SDS011;3792;47.740;7.606;2023-02-25T07:37:03;9.50;;;6.37;;
7501;SDS011;3792;47.740;7.606;2023-02-25T07:39:30;9.27;;;5.40;;
7501;SDS011;3792;47.740;7.606;2023-02-25T07:41:57;6.17;;;4.80;;
7501;SDS011;3792;47.740;7.606;2023-02-25T07:44:25;8.67;;;5.00;;
7501;SDS011;3792;47.740;7.606;2023-02-25T07:46:52;9.63;;;5.90;;
7501;SDS011;3792;47.740;7.606;2023-02-25T07:49:20;9.20;;;5.87;;
7501;SDS011;3792;47.740;7.606;2023-02-25T07:51:48;8.70;;;5.53;;
7501;SDS011;3792;47.740;7.606;2023-02-25T07:54:15;6.20;;;4.37;;
7501;SDS011;3792;47.740;7.606;2023-02-25T07:56:45;7.03;;;4.33;;
7501;SDS011;3792;47.740;7.606;2023-02-25T07:59:15;7.83;;;5.43;;
7501;SDS011;3792;47.740;7.606;2023-02-25T08:01:43;6.17;;;4.73;;
7501;SDS011;3792;47.740;7.606;2023-02-25T08:04:10;7.97;;;5.87;;
7501;SDS011;3792;47.740;7.606;2023-02-25T08:06:39;6.53;;;4.27;;
7501;SDS011;3792;47.740;7.606;2023-02-25T08:09:09;14.67;;;8.23;;
7501;SDS011;3792;47.740;7.606;2023-02-25T08:11:39;7.40;;;4.17;;
7501;SDS011;3792;47.740;7.606;2023-02-25T08:14:08;6.37;;;4.10;;
7501;SDS011;3792;47.740;7.606;2023-02-25T08:16:36;7.77;;;3.30;;
7501;SDS011;3792;47.740;7.606;2023-02-25T08:19:03;7.07;;;3.43;;
7501;SDS011;3792;47.740;7.606;2023-02-25T08:21:31;8.63;;;3.23;;
7501;SDS011;3792;47.740;7.606;2023-02-25T08:24:00;7.00;;;2.83;;
7501;SDS011;3792;47.740;7.606;2023-02-25T08:26:27;6.50;;;3.13;;
7501;SDS011;3792;47.740;7.606;2023-02-25T08:28:54;10.20;;;3.00;;
7501;SDS011;3792;47.740;7.606;2023-02-25T08:31:22;6.40;;;2.77;;
7501;SDS011;3792;47.740;7.606;2023-02-25T08:33:49;5.33;;;2.90;;
7501;SDS011;3792;47.740;7.606;2023-02-25T08:36:18;4.93;;;2.50;;
7501;SDS011;3792;47.740;7.606;2023-02-25T08:38:47;4.93;;;2.73;;
7501;SDS011;3792;47.740;7.606;2023-02-25T08:41:16;7.47;;;3.00;;
7501;SDS011;3792;47.740;7.606;2023-02-25T08:43:46;3.53;;;2.57;;
7501;SDS011;3792;47.740;7.606;2023-02-25T08:46:15;8.47;;;4.03;;
7501;SDS011;3792;47.740;7.606;2023-02-25T08:48:42;2.70;;;2.17;;
7501;SDS011;3792;47.740;7.606;2023-02-25T08:51:09;4.17;;;2.37;;
7501;SDS011;3792;47.740;7.606;2023-02-25T08:53:39;3.80;;;2.70;;
7501;SDS011;3792;47.740;7.606;2023-02-25T08:56:06;5.47;;;3.60;;
7501;SDS011;3792;47.740;7.606;2023-02-25T08:58:37;7.27;;;2.83;;
7501;SDS011;3792;47.740;7.606;2023-02-25T09:01:05;4.63;;;2.70;;
7501;SDS011;3792;47.740;7.606;2023-02-25T09:03:37;7.90;;;2.97;;
7501;SDS011;3792;47.740;7.606;2023-02-25T09:06:04;7.47;;;2.57;;
7501;SDS011;3792;47.740;7.606;2023-02-25T09:08:31;8.17;;;4.57;;
7501;SDS011;3792;47.740;7.606;2023-02-25T09:11:01;3.67;;;2.57;;
7501;SDS011;3792;47.740;7.606;2023-02-25T09:13:30;2.10;;;1.87;;
7501;SDS011;3792;47.740;7.606;2023-02-25T09:15:59;5.10;;;1.87;;
7501;SDS011;3792;47.740;7.606;2023-02-25T09:18:26;2.50;;;1.53;;
7501;SDS011;3792;47.740;7.606;2023-02-25T09:20:55;4.17;;;1.80;;
7501;SDS011;3792;47.740;7.606;2023-02-25T09:23:22;3.93;;;1.83;;
7501;SDS011;3792;47.740;7.606;2023-02-25T09:25:49;3.87;;;2.13;;
7501;SDS011;3792;47.740;7.606;2023-02-25T09:28:16;4.83;;;1.97;;
7501;SDS011;3792;47.740;7.606;2023-02-25T09:30:43;5.90;;;2.60;;
7501;SDS011;3792;47.740;7.606;2023-02-25T09:33:13;3.93;;;2.40;;
7501;SDS011;3792;47.740;7.606;2023-02-25T09:35:40;3.27;;;2.10;;
7501;SDS011;3792;47.740;7.606;2023-02-25T09:38:07;8.83;;;3.90;;
7501;SDS011;3792;47.740;7.606;2023-02-25T09:40:34;4.57;;;2.77;;
7501;SDS011;3792;47.740;7.606;2023-02-25T09:43:04;3.70;;;2.63;;
7501;SDS011;3792;47.740;7.606;2023-02-25T09:45:41;4.57;;;2.17;;
7501;SDS011;3792;47.740;7.606;2023-02-25T09:48:14;3.43;;;1.70;;
7501;SDS011;3792;47.740;7.606;2023-02-25T09:50:47;3.97;;;2.10;;
7501;SDS011;3792;47.740;7.606;2023-02-25T09:53:17;4.93;;;1.80;;
7501;SDS011;3792;47.740;7.606;2023-02-25T09:55:49;3.70;;;2.40;;
7501;SDS011;3792;47.740;7.606;2023-02-25T09:58:20;4.93;;;2.40;;
7501;SDS011;3792;47.740;7.606;2023-02-25T10:00:55;3.40;;;2.40;;
7501;SDS011;3792;47.740;7.606;2023-02-25T10:03:34;5.30;;;2.37;;
7501;SDS011;3792;47.740;7.606;2023-02-25T10:06:09;3.70;;;2.70;;
7501;SDS011;3792;47.740;7.606;2023-02-25T10:08:42;3.50;;;2.30;;
7501;SDS011;3792;47.740;7.606;2023-02-25T10:11:18;4.40;;;2.27;;
7501;SDS011;3792;47.740;7.606;2023-02-25T10:13:56;3.73;;;2.23;;
7501;SDS011;3792;47.740;7.606;2023-02-25T10:16:32;4.37;;;2.37;;
7501;SDS011;3792;47.740;7.606;2023-02-25T10:19:13;7.37;;;2.13;;
7501;SDS011;3792;47.740;7.606;2023-02-25T10:21:54;4.90;;;2.37;;
7501;SDS011;3792;47.740;7.606;2023-02-25T10:24:32;2.27;;;2.07;;
7501;SDS011;3792;47.740;7.606;2023-02-25T10:27:06;4.40;;;1.90;;
7501;SDS011;3792;47.740;7.606;2023-02-25T10:29:39;7.03;;;2.67;;
7501;SDS011;3792;47.740;7.606;2023-02-25T10:32:17;7.27;;;2.70;;
7501;SDS011;3792;47.740;7.606;2023-02-25T10:34:50;4.90;;;2.87;;
7501;SDS011;3792;47.740;7.606;2023-02-25T10:37:19;4.47;;;1.97;;
7501;SDS011;3792;47.740;7.606;2023-02-25T10:39:52;5.53;;;2.60;;
7501;SDS011;3792;47.740;7.606;2023-02-25T10:42:21;7.03;;;3.97;;
7501;SDS011;3792;47.740;7.606;2023-02-25T10:44:48;4.70;;;2.20;;
7501;SDS011;3792;47.740;7.606;2023-02-25T10:47:17;5.80;;;2.80;;
7501;SDS011;3792;47.740;7.606;2023-02-25T10:50:17;10.17;;;5.80;;
7501;SDS011;3792;47.740;7.606;2023-02-25T10:52:53;3.23;;;2.20;;
7501;SDS011;3792;47.740;7.606;2023-02-25T10:55:26;7.07;;;3.23;;
7501;SDS011;3792;47.740;7.606;2023-02-25T10:57:56;3.40;;;1.83;;
7501;SDS011;3792;47.740;7.606;2023-02-25T11:00:25;4.93;;;1.53;;
7501;SDS011;3792;47.740;7.606;2023-02-25T11:02:54;4.13;;;2.17;;
7501;SDS011;3792;47.740;7.606;2023-02-25T11:05:35;5.13;;;2.47;;
7501;SDS011;3792;47.740;7.606;2023-02-25T11:08:05;3.63;;;2.30;;
7501;SDS011;3792;47.740;7.606;2023-02-25T11:10:58;5.97;;;2.67;;
7501;SDS011;3792;47.740;7.606;2023-02-25T11:13:30;3.93;;;1.97;;
7501;SDS011;3792;47.740;7.606;2023-02-25T11:16:01;3.27;;;1.57;;
7501;SDS011;3792;47.740;7.606;2023-02-25T11:18:33;2.73;;;1.80;;
7501;SDS011;3792;47.740;7.606;2023-02-25T11:21:04;4.37;;;1.77;;
7501;SDS011;3792;47.740;7.606;2023-02-25T11:23:33;3.53;;;1.93;;
7501;SDS011;3792;47.740;7.606;2023-02-25T11:26:03;2.93;;;1.70;;
7501;SDS011;3792;47.740;7.606;2023-02-25T11:28:32;11.97;;;6.00;;
7501;SDS011;3792;47.740;7.606;2023-02-25T11:31:08;2.33;;;1.57;;
7501;SDS011;3792;47.740;7.606;2023-02-25T11:33:38;3.23;;;2.13;;
7501;SDS011;3792;47.740;7.606;2023-02-25T11:36:18;3.13;;;1.73;;
7501;SDS011;3792;47.740;7.606;2023-02-25T11:38:47;2.97;;;1.80;;
7501;SDS011;3792;47.740;7.606;2023-02-25T11:41:16;7.60;;;2.37;;
7501;SDS011;3792;47.740;7.606;2023-02-25T11:43:46;4.33;;;2.17;;
7501;SDS011;3792;47.740;7.606;2023-02-25T11:46:16;3.97;;;1.50;;
7501;SDS011;3792;47.740;7.606;2023-02-25T11:48:47;3.10;;;1.70;;
7501;SDS011;3792;47.740;7.606;2023-02-25T11:51:22;2.73;;;2.00;;
7501;SDS011;3792;47.740;7.606;2023-02-25T11:53:56;2.80;;;2.27;;
7501;SDS011;3792;47.740;7.606;2023-02-25T11:56:48;3.23;;;1.87;;
7501;SDS011;3792;47.740;7.606;2023-02-25T11:59:25;3.60;;;1.90;;
7501;SDS011;3792;47.740;7.606;2023-02-25T12:05:04;3.57;;;1.90;;
7501;SDS011;3792;47.740;7.606;2023-02-25T12:07:53;3.40;;;1.80;;
7501;SDS011;3792;47.740;7.606;2023-02-25T12:10:31;3.33;;;1.60;;
7501;SDS011;3792;47.740;7.606;2023-02-25T12:25:44;4.27;;;1.60;;
7501;SDS011;3792;47.740;7.606;2023-02-25T12:28:35;6.90;;;2.00;;
7501;SDS011;3792;47.740;7.606;2023-02-25T12:31:28;2.97;;;1.60;;
7501;SDS011;3792;47.740;7.606;2023-02-25T12:34:36;6.23;;;1.93;;
7501;SDS011;3792;47.740;7.606;2023-02-25T12:37:27;3.50;;;1.50;;
7501;SDS011;3792;47.740;7.606;2023-02-25T12:40:07;3.60;;;1.60;;
7501;SDS011;3792;47.740;7.606;2023-02-25T12:42:54;6.23;;;1.77;;
7501;SDS011;3792;47.740;7.606;2023-02-25T12:54:40;3.37;;;1.90;;
7501;SDS011;3792;47.740;7.606;2023-02-25T12:57:41;3.90;;;1.80;;
7501;SDS011;3792;47.740;7.606;2023-02-25T13:00:31;3.63;;;1.50;;
7501;SDS011;3792;47.740;7.606;2023-02-25T13:03:26;4.73;;;1.50;;
7501;SDS011;3792;47.740;7.606;2023-02-25T13:09:20;4.73;;;2.10;;
7501;SDS011;3792;47.740;7.606;2023-02-25T13:12:04;2.37;;;1.90;;
7501;SDS011;3792;47.740;7.606;2023-02-25T13:14:45;4.87;;;1.90;;
7501;SDS011;3792;47.740;7.606;2023-02-25T13:17:36;4.03;;;2.23;;
7501;SDS011;3792;47.740;7.606;2023-02-25T13:20:37;4.83;;;2.10;;
7501;SDS011;3792;47.740;7.606;2023-02-25T13:23:30;6.03;;;2.63;;
7501;SDS011;3792;47.740;7.606;2023-02-25T13:26:10;5.50;;;2.10;;
7501;SDS011;3792;47.740;7.606;2023-02-25T13:31:56;4.83;;;1.87;;
7501;SDS011;3792;47.740;7.606;2023-02-25T13:34:41;5.40;;;2.37;;
7501;SDS011;3792;47.740;7.606;2023-02-25T13:37:21;7.33;;;2.57;;
7501;SDS011;3792;47.740;7.606;2023-02-25T13:40:11;4.97;;;2.43;;
7501;SDS011;3792;47.740;7.606;2023-02-25T13:46:14;5.07;;;2.70;;
7501;SDS011;3792;47.740;7.606;2023-02-25T13:49:07;5.73;;;2.53;;
7501;SDS011;3792;47.740;7.606;2023-02-25T13:51:59;3.00;;;1.80;;
7501;SDS011;3792;47.740;7.606;2023-02-25T13:54:49;6.50;;;2.13;;
7501;SDS011;3792;47.740;7.606;2023-02-25T13:57:38;2.93;;;1.73;;
7501;SDS011;3792;47.740;7.606;2023-02-25T14:06:34;4.27;;;2.13;;
7501;SDS011;3792;47.740;7.606;2023-02-25T14:09:20;4.53;;;2.03;;
7501;SDS011;3792;47.740;7.606;2023-02-25T14:11:57;7.00;;;2.43;;
7501;SDS011;3792;47.740;7.606;2023-02-25T14:17:25;4.50;;;2.50;;
7501;SDS011;3792;47.740;7.606;2023-02-25T14:22:59;7.40;;;3.13;;
7501;SDS011;3792;47.740;7.606;2023-02-25T14:25:40;3.83;;;2.40;;
7501;SDS011;3792;47.740;7.606;2023-02-25T14:28:21;7.17;;;4.00;;
7501;SDS011;3792;47.740;7.606;2023-02-25T14:31:00;5.87;;;2.97;;
7501;SDS011;3792;47.740;7.606;2023-02-25T14:33:51;10.20;;;4.17;;
7501;SDS011;3792;47.740;7.606;2023-02-25T14:36:40;8.67;;;4.77;;
7501;SDS011;3792;47.740;7.606;2023-02-25T14:39:26;11.27;;;4.97;;
7501;SDS011;3792;47.740;7.606;2023-02-25T14:42:14;6.77;;;3.27;;
7501;SDS011;3792;47.740;7.606;2023-02-25T14:44:53;21.10;;;12.80;;
7501;SDS011;3792;47.740;7.606;2023-02-25T14:47:26;11.53;;;7.23;;
7501;SDS011;3792;47.740;7.606;2023-02-25T14:49:56;5.80;;;3.43;;
7501;SDS011;3792;47.740;7.606;2023-02-25T14:52:39;4.77;;;2.50;;
7501;SDS011;3792;47.740;7.606;2023-02-25T14:58:37;8.07;;;2.67;;
7501;SDS011;3792;47.740;7.606;2023-02-25T15:04:45;6.73;;;2.33;;
7501;SDS011;3792;47.740;7.606;2023-02-25T15:07:43;5.53;;;2.23;;
7501;SDS011;3792;47.740;7.606;2023-02-25T15:10:33;4.37;;;2.00;;
7501;SDS011;3792;47.740;7.606;2023-02-25T15:19:23;7.17;;;3.80;;
7501;SDS011;3792;47.740;7.606;2023-02-25T15:22:21;9.30;;;3.13;;
7501;SDS011;3792;47.740;7.606;2023-02-25T15:24:53;6.57;;;3.47;;
7501;SDS011;3792;47.740;7.606;2023-02-25T15:28:01;5.70;;;1.93;;
7501;SDS011;3792;47.740;7.606;2023-02-25T15:31:03;4.73;;;1.97;;
7501;SDS011;3792;47.740;7.606;2023-02-25T15:33:36;8.93;;;3.10;;
7501;SDS011;3792;47.740;7.606;2023-02-25T15:36:20;6.00;;;2.87;;
7501;SDS011;3792;47.740;7.606;2023-02-25T15:38:52;6.07;;;2.83;;
7501;SDS011;3792;47.740;7.606;2023-02-25T15:41:37;4.53;;;2.27;;
7501;SDS011;3792;47.740;7.606;2023-02-25T15:44:31;9.93;;;4.57;;
7501;SDS011;3792;47.740;7.606;2023-02-25T15:47:10;11.13;;;6.80;;
7501;SDS011;3792;47.740;7.606;2023-02-25T15:49:48;17.47;;;12.57;;
7501;SDS011;3792;47.740;7.606;2023-02-25T16:07:13;7.57;;;3.43;;
7501;SDS011;3792;47.740;7.606;2023-02-25T16:09:45;3.70;;;2.80;;
7501;SDS011;3792;47.740;7.606;2023-02-25T16:12:18;4.30;;;2.70;;
7501;SDS011;3792;47.740;7.606;2023-02-25T16:14:45;14.77;;;9.97;;
7501;SDS011;3792;47.740;7.606;2023-02-25T16:17:14;8.97;;;5.87;;
7501;SDS011;3792;47.740;7.606;2023-02-25T16:19:46;9.93;;;6.70;;
7501;SDS011;3792;47.740;7.606;2023-02-25T16:22:20;11.33;;;7.00;;
7501;SDS011;3792;47.740;7.606;2023-02-25T16:24:49;8.57;;;5.37;;
7501;SDS011;3792;47.740;7.606;2023-02-25T16:27:21;18.10;;;11.20;;
7501;SDS011;3792;47.740;7.606;2023-02-25T16:30:02;14.07;;;9.20;;
7501;SDS011;3792;47.740;7.606;2023-02-25T16:32:37;6.47;;;2.73;;
7501;SDS011;3792;47.740;7.606;2023-02-25T16:35:12;6.97;;;3.10;;
7501;SDS011;3792;47.740;7.606;2023-02-25T16:37:45;6.30;;;3.97;;
7501;SDS011;3792;47.740;7.606;2023-02-25T16:40:19;10.10;;;6.53;;
7501;SDS011;3792;47.740;7.606;2023-02-25T16:42:50;8.60;;;6.63;;
7501;SDS011;3792;47.740;7.606;2023-02-25T16:45:23;8.60;;;6.73;;
7501;SDS011;3792;47.740;7.606;2023-02-25T16:47:52;9.53;;;5.80;;
7501;SDS011;3792;47.740;7.606;2023-02-25T16:50:26;16.67;;;10.47;;
7501;SDS011;3792;47.740;7.606;2023-02-25T16:52:55;14.70;;;9.67;;
7501;SDS011;3792;47.740;7.606;2023-02-25T16:55:24;14.93;;;8.50;;
7501;SDS011;3792;47.740;7.606;2023-02-25T16:58:03;10.17;;;6.13;;
7501;SDS011;3792;47.740;7.606;2023-02-25T17:00:33;11.10;;;6.10;;